Time;durP1;ratioP1;P1;durP2;ratioP2;P2;SDS_P1;SDS_P2;PMS_P1;PMS_P2;Temp;Humidity;BMP_temperature;BMP_pressure;BME280_temperature;BME280_humidity;BME280_pressure;Samples;Min_cycle;Max_cycle;Signal;HPM_P1;HPM_P2
2022/03/14 00:02:09;;;;;;;9.35;4.40;;;10.80;59.10;;;;;;5060245;28;20039;-61
2022/03/14 00:04:37;;;;;;;16.08;5.10;;;10.80;59.20;;;;;;5056390;28;20059;-61
2022/03/14 00:07:04;;;;;;;7.43;4.13;;;10.80;58.90;;;;;;5063825;28;20057;-61
2022/03/14 00:09:30;;;;;;;11.00;4.97;;;10.80;59.10;;;;;;5066629;28;20376;-61
2022/03/14 00:11:56;;;;;;;11.68;5.53;;;10.80;59.00;;;;;;5062673;28;20119;-61
2022/03/14 00:14:25;;;;;;;13.02;5.60;;;10.80;59.30;;;;;;5066274;28;20508;-61
2022/03/14 00:16:54;;;;;;;12.18;5.55;;;10.80;59.30;;;;;;5067475;28;20078;-61
2022/03/14 00:19:20;;;;;;;13.38;5.70;;;10.70;59.10;;;;;;5072190;28;20035;-61
2022/03/14 00:21:46;;;;;;;12.80;5.47;;;10.70;59.00;;;;;;5071726;28;20030;-61
2022/03/14 00:24:12;;;;;;;9.43;5.00;;;10.80;59.00;;;;;;5072469;28;20415;-62
2022/03/14 00:26:39;;;;;;;12.88;5.28;;;10.70;59.50;;;;;;5059414;28;20013;-61
2022/03/14 00:29:08;;;;;;;10.52;4.53;;;10.70;59.20;;;;;;5070665;28;20036;-61
2022/03/14 00:31:34;;;;;;;10.55;4.82;;;10.70;59.10;;;;;;5070250;28;20028;-61
2022/03/14 00:33:59;;;;;;;9.07;4.13;;;10.80;59.30;;;;;;5070561;28;20025;-61
2022/03/14 00:36:26;;;;;;;11.60;4.28;;;10.80;59.10;;;;;;5067833;28;20031;-61
2022/03/14 00:38:52;;;;;;;22.33;5.38;;;10.80;59.20;;;;;;5059218;28;20064;-61
2022/03/14 00:41:18;;;;;;;11.95;5.60;;;10.70;59.00;;;;;;5062735;28;20485;-62
2022/03/14 00:43:44;;;;;;;12.25;5.72;;;10.70;59.20;;;;;;5058471;28;20048;-61
2022/03/14 00:46:10;;;;;;;16.83;5.68;;;10.70;59.20;;;;;;5069530;28;20032;-61
2022/03/14 00:48:36;;;;;;;11.35;6.20;;;10.70;59.10;;;;;;5071880;28;20040;-61
2022/03/14 00:51:04;;;;;;;12.10;5.03;;;10.80;59.10;;;;;;5071637;28;20052;-61
2022/03/14 00:53:31;;;;;;;7.55;4.32;;;10.70;59.50;;;;;;5071497;28;20052;-61
2022/03/14 00:55:59;;;;;;;14.70;6.00;;;10.70;59.10;;;;;;5069586;28;20071;-61
2022/03/14 00:58:26;;;;;;;14.73;6.13;;;10.70;59.30;;;;;;5067341;28;20431;-61
2022/03/14 01:00:52;;;;;;;15.80;5.40;;;10.70;59.20;;;;;;5060161;28;20367;-61
2022/03/14 01:03:17;;;;;;;11.95;5.03;;;10.70;59.20;;;;;;5063033;28;20025;-61
2022/03/14 01:05:43;;;;;;;15.52;4.72;;;10.70;59.30;;;;;;5066794;28;20035;-61
2022/03/14 01:08:09;;;;;;;12.25;4.88;;;10.70;59.40;;;;;;5064903;28;20039;-61
2022/03/14 01:10:35;;;;;;;14.73;5.85;;;10.70;59.50;;;;;;5068619;28;20029;-61
2022/03/14 01:13:03;;;;;;;11.93;5.82;;;10.70;59.40;;;;;;5070214;28;20025;-61
2022/03/14 01:15:29;;;;;;;14.38;5.78;;;10.70;59.30;;;;;;5063573;28;20027;-61
2022/03/14 01:17:56;;;;;;;15.85;6.72;;;10.70;59.60;;;;;;5066445;28;20029;-61
2022/03/14 01:20:22;;;;;;;13.88;4.68;;;10.70;59.40;;;;;;5051275;28;20036;-61
2022/03/14 01:22:47;;;;;;;11.00;4.82;;;10.70;59.40;;;;;;5070879;28;20032;-61
2022/03/14 01:25:13;;;;;;;11.75;4.18;;;10.70;59.60;;;;;;5050889;28;20040;-61
2022/03/14 01:27:39;;;;;;;13.73;5.88;;;10.70;59.40;;;;;;5053763;28;20035;-61
2022/03/14 01:30:05;;;;;;;12.75;4.32;;;10.70;59.40;;;;;;5051137;28;20028;-61
2022/03/14 01:32:30;;;;;;;12.77;4.43;;;10.70;59.50;;;;;;5062162;28;20395;-61
2022/03/14 01:34:56;;;;;;;13.25;4.85;;;10.70;59.30;;;;;;5067169;28;20027;-61
2022/03/14 01:37:21;;;;;;;12.57;5.75;;;10.70;60.00;;;;;;5057958;28;20461;-61
2022/03/14 01:39:47;;;;;;;20.13;6.57;;;10.70;59.50;;;;;;5061722;28;20074;-61
2022/03/14 01:42:17;;;;;;;16.45;5.63;;;10.70;59.70;;;;;;5065958;28;20037;-61
2022/03/14 01:44:45;;;;;;;19.15;6.15;;;10.70;59.40;;;;;;5058802;28;20021;-61
2022/03/14 01:47:11;;;;;;;11.38;5.28;;;10.70;59.50;;;;;;5062396;28;20033;-61
2022/03/14 01:49:37;;;;;;;11.30;5.70;;;10.70;59.60;;;;;;5069722;28;20074;-61
2022/03/14 01:52:05;;;;;;;9.25;4.57;;;10.70;59.50;;;;;;5070012;28;20488;-61
2022/03/14 01:54:31;;;;;;;14.48;4.95;;;10.70;59.40;;;;;;5066152;28;20031;-61
2022/03/14 01:56:57;;;;;;;14.57;4.85;;;10.70;59.60;;;;;;5062336;28;20025;-61
2022/03/14 01:59:23;;;;;;;12.80;5.43;;;10.70;59.70;;;;;;5062425;28;20631;-61
2022/03/14 02:01:49;;;;;;;12.43;5.10;;;10.70;59.90;;;;;;5061906;28;20024;-61
2022/03/14 02:04:18;;;;;;;12.55;5.93;;;10.70;59.90;;;;;;5070426;28;20027;-61
2022/03/14 02:06:46;;;;;;;14.93;5.93;;;10.70;59.80;;;;;;5065380;28;20048;-61
2022/03/14 02:09:12;;;;;;;12.00;5.05;;;10.70;59.70;;;;;;5058488;28;20044;-61
2022/03/14 02:11:38;;;;;;;12.38;6.25;;;10.70;59.80;;;;;;5056438;28;20035;-61
2022/03/14 02:14:06;;;;;;;15.40;6.35;;;10.70;59.80;;;;;;5068576;28;20359;-61
2022/03/14 02:16:31;;;;;;;12.27;6.57;;;10.70;59.70;;;;;;5069824;28;20028;-62
2022/03/14 02:18:57;;;;;;;15.05;5.97;;;10.70;60.00;;;;;;5070118;28;20032;-61
2022/03/14 02:21:23;;;;;;;14.10;5.65;;;10.70;59.90;;;;;;5065306;28;20021;-61
2022/03/14 02:23:49;;;;;;;16.05;5.97;;;10.70;60.30;;;;;;5062205;28;20102;-61
2022/03/14 02:26:14;;;;;;;12.82;5.93;;;10.70;59.90;;;;;;5062294;28;20020;-61
2022/03/14 02:28:40;;;;;;;16.52;5.72;;;10.70;60.30;;;;;;5057632;28;20029;-61
2022/03/14 02:31:06;;;;;;;15.02;5.57;;;10.70;59.70;;;;;;5057635;28;20481;-61
2022/03/14 02:33:32;;;;;;;15.75;6.32;;;10.70;60.20;;;;;;5061832;28;20039;-61
2022/03/14 02:35:58;;;;;;;14.70;6.65;;;10.70;60.40;;;;;;5057896;28;20025;-61
2022/03/14 02:38:24;;;;;;;27.98;8.38;;;10.70;60.10;;;;;;5057471;28;20035;-61
2022/03/14 02:40:49;;;;;;;21.08;8.07;;;10.70;60.00;;;;;;5064851;28;20070;-61
2022/03/14 02:43:17;;;;;;;18.70;8.70;;;10.70;60.10;;;;;;5066095;28;20025;-61
2022/03/14 02:45:43;;;;;;;21.60;8.55;;;10.70;60.00;;;;;;5065120;28;20028;-61
2022/03/14 02:48:10;;;;;;;15.80;6.13;;;10.70;60.00;;;;;;5063750;28;20401;-61
2022/03/14 02:50:37;;;;;;;16.00;7.40;;;10.70;61.00;;;;;;5069709;28;20504;-61
2022/03/14 02:53:03;;;;;;;13.25;5.97;;;10.70;60.70;;;;;;5065144;28;20143;-61
2022/03/14 02:55:28;;;;;;;18.60;7.55;;;10.70;60.50;;;;;;5061046;28;20107;-61
2022/03/14 02:57:54;;;;;;;19.77;8.90;;;10.70;60.70;;;;;;5060227;28;20235;-61
2022/03/14 03:00:20;;;;;;;16.58;7.60;;;10.70;60.50;;;;;;5060678;28;20062;-61
2022/03/14 03:02:46;;;;;;;11.07;6.25;;;10.70;61.00;;;;;;5059617;28;20466;-60
2022/03/14 03:05:11;;;;;;;21.98;8.30;;;10.80;60.90;;;;;;5065527;28;20516;-61
2022/03/14 03:07:38;;;;;;;16.65;7.60;;;10.70;61.50;;;;;;5058073;28;20419;-61
2022/03/14 03:10:04;;;;;;;17.27;6.72;;;10.70;60.90;;;;;;5064510;28;20035;-61
2022/03/14 03:12:32;;;;;;;15.98;7.40;;;10.70;61.40;;;;;;5067066;28;20449;-61
2022/03/14 03:14:58;;;;;;;19.35;7.72;;;10.70;62.10;;;;;;5059044;28;20107;-61
2022/03/14 03:17:24;;;;;;;19.02;7.32;;;10.70;62.50;;;;;;5060987;28;20111;-61
2022/03/14 03:19:50;;;;;;;22.63;7.50;;;10.70;61.70;;;;;;5068301;28;20028;-61
2022/03/14 03:22:15;;;;;;;16.15;7.43;;;10.70;61.90;;;;;;5059588;28;20101;-61
2022/03/14 03:24:41;;;;;;;14.68;6.75;;;10.70;62.20;;;;;;5068465;28;20436;-61
2022/03/14 03:27:06;;;;;;;13.98;6.25;;;10.70;61.90;;;;;;5063145;28;20025;-61
2022/03/14 03:29:32;;;;;;;16.10;6.10;;;10.70;62.30;;;;;;5057873;28;20071;-61
2022/03/14 03:31:58;;;;;;;11.38;5.57;;;10.70;62.50;;;;;;5066736;28;20523;-61
2022/03/14 03:34:23;;;;;;;10.80;5.45;;;10.70;62.40;;;;;;5067538;28;20036;-61
2022/03/14 03:36:49;;;;;;;12.27;5.43;;;10.70;62.80;;;;;;5062066;28;20109;-61
2022/03/14 03:39:15;;;;;;;14.27;5.35;;;10.70;62.80;;;;;;5056563;28;20078;-61
2022/03/14 03:41:40;;;;;;;11.82;4.78;;;10.70;63.00;;;;;;5055711;28;20016;-61
2022/03/14 03:44:07;;;;;;;11.48;5.25;;;10.70;62.80;;;;;;5060620;28;20485;-61
2022/03/14 03:46:33;;;;;;;8.90;4.65;;;10.70;62.80;;;;;;5062124;28;20508;-61
2022/03/14 03:48:58;;;;;;;9.77;5.03;;;10.70;63.40;;;;;;5066419;28;20041;-61
2022/03/14 03:51:24;;;;;;;11.55;5.18;;;10.70;63.10;;;;;;5071009;28;20036;-61
2022/03/14 03:53:50;;;;;;;16.80;5.47;;;10.70;63.20;;;;;;5062066;28;20820;-61
2022/03/14 03:56:16;;;;;;;19.75;3.47;;;10.80;63.40;;;;;;5060820;28;20083;-61
2022/03/14 03:58:42;;;;;;;12.05;4.82;;;10.80;64.00;;;;;;5068262;28;20047;-61
2022/03/14 04:01:08;;;;;;;12.13;4.30;;;10.70;63.30;;;;;;5063316;28;20547;-61
2022/03/14 04:03:34;;;;;;;10.02;4.32;;;10.80;63.80;;;;;;5081696;22;20052;-64
2022/03/14 04:06:01;;;;;;;5.45;2.85;;;10.80;63.80;;;;;;5064758;28;20052;-64
2022/03/14 04:08:30;;;;;;;8.98;3.72;;;10.80;63.70;;;;;;5066070;28;20068;-64
2022/03/14 04:10:57;;;;;;;8.43;4.22;;;10.80;64.50;;;;;;5072107;28;20028;-64
2022/03/14 04:13:24;;;;;;;7.10;3.28;;;10.80;64.00;;;;;;5071686;28;20078;-65
2022/03/14 04:15:51;;;;;;;7.30;3.92;;;10.80;64.00;;;;;;5072888;28;20047;-64
2022/03/14 04:18:24;;;;;;;7.70;3.70;;;10.80;64.00;;;;;;5070829;28;20047;-64
2022/03/14 04:20:52;;;;;;;7.00;3.40;;;10.80;64.30;;;;;;5072194;28;20531;-64
2022/03/14 04:23:19;;;;;;;7.28;2.90;;;10.80;64.40;;;;;;5071916;28;20032;-64
2022/03/14 04:25:46;;;;;;;8.07;2.67;;;10.80;64.30;;;;;;5072333;28;20458;-64
2022/03/14 04:28:12;;;;;;;3.80;2.25;;;10.80;64.30;;;;;;5071091;28;20484;-64
2022/03/14 04:30:38;;;;;;;7.22;3.03;;;10.80;64.40;;;;;;5072515;28;20028;-64
2022/03/14 04:33:04;;;;;;;6.28;2.40;;;10.80;64.50;;;;;;5069638;28;20031;-64
2022/03/14 04:35:29;;;;;;;6.18;3.20;;;10.80;64.70;;;;;;5072046;28;20024;-64
2022/03/14 04:37:55;;;;;;;6.10;3.22;;;10.80;64.90;;;;;;5070876;28;20107;-64
2022/03/14 04:40:21;;;;;;;2.85;2.13;;;10.80;64.70;;;;;;5072449;28;20028;-66
2022/03/14 04:42:47;;;;;;;8.43;2.42;;;10.80;65.30;;;;;;5071453;28;20043;-64
2022/03/14 04:45:12;;;;;;;5.78;2.30;;;10.80;65.10;;;;;;5071937;28;20021;-64
2022/03/14 04:47:38;;;;;;;3.05;1.75;;;10.80;65.00;;;;;;5054621;28;20040;-63
2022/03/14 04:50:06;;;;;;;4.63;2.45;;;10.80;65.30;;;;;;5068782;28;20028;-64
2022/03/14 04:52:31;;;;;;;2.90;1.63;;;10.80;65.30;;;;;;5070915;28;20028;-64
2022/03/14 04:54:57;;;;;;;3.60;1.92;;;10.80;65.30;;;;;;5071023;28;20303;-64
2022/03/14 04:57:24;;;;;;;3.80;1.73;;;10.80;65.50;;;;;;5072260;28;20021;-63
2022/03/14 04:59:49;;;;;;;3.95;1.88;;;10.80;65.20;;;;;;5071481;28;20078;-63
2022/03/14 05:02:25;;;;;;;5.10;2.42;;;10.80;65.70;;;;;;5071220;28;20047;-63
2022/03/14 05:04:51;;;;;;;5.78;3.15;;;10.80;65.50;;;;;;5070449;28;20400;-63
2022/03/14 05:07:17;;;;;;;13.85;4.47;;;10.80;65.40;;;;;;5070227;28;20028;-63
2022/03/14 05:09:43;;;;;;;6.13;3.35;;;10.80;65.70;;;;;;5070707;28;20210;-63
2022/03/14 05:12:11;;;;;;;7.15;3.95;;;10.80;65.60;;;;;;5071039;28;20095;-64
2022/03/14 05:14:38;;;;;;;9.50;3.42;;;10.80;65.70;;;;;;5070825;28;20025;-63
2022/03/14 05:17:04;;;;;;;11.45;4.93;;;10.80;65.70;;;;;;5069075;28;20399;-63
2022/03/14 05:19:29;;;;;;;8.43;4.03;;;10.80;65.70;;;;;;5068821;28;20024;-63
2022/03/14 05:21:55;;;;;;;9.73;4.13;;;10.80;66.00;;;;;;5071345;28;20096;-63
2022/03/14 05:24:20;;;;;;;9.40;4.28;;;10.80;66.10;;;;;;5070874;28;20021;-63
2022/03/14 05:26:51;;;;;;;5.88;2.85;;;10.90;66.10;;;;;;5070962;28;20496;-63
2022/03/14 05:29:32;;;;;;;;;;;10.80;66.10;;;;;;5071296;28;20036;-63
2022/03/14 05:31:58;;;;;;;8.95;3.88;;;10.80;66.00;;;;;;5070267;28;19946;-63
2022/03/14 05:34:23;;;;;;;6.18;2.75;;;10.80;66.40;;;;;;5070192;28;20056;-63
2022/03/14 05:36:49;;;;;;;8.68;3.33;;;10.80;66.10;;;;;;5069632;28;20017;-63
2022/03/14 05:39:14;;;;;;;8.80;3.50;;;10.80;66.30;;;;;;5057009;28;20515;-63
2022/03/14 05:41:40;;;;;;;7.30;3.20;;;10.80;66.40;;;;;;5070712;28;20036;-63
2022/03/14 05:44:06;;;;;;;9.60;3.40;;;10.80;66.40;;;;;;5072137;28;20267;-63
2022/03/14 05:46:32;;;;;;;7.22;3.17;;;10.90;66.50;;;;;;5070380;28;20016;-63
2022/03/14 05:48:57;;;;;;;8.05;3.47;;;10.80;66.40;;;;;;5067350;28;20109;-63
2022/03/14 05:51:23;;;;;;;5.00;2.42;;;10.90;66.60;;;;;;5068867;28;20677;-63
2022/03/14 05:53:49;;;;;;;7.50;3.00;;;10.80;66.40;;;;;;5070771;28;20025;-63
2022/03/14 05:56:14;;;;;;;6.07;2.80;;;10.80;66.70;;;;;;5071028;28;20602;-62
2022/03/14 05:58:40;;;;;;;4.70;2.58;;;10.90;67.00;;;;;;5068972;28;20028;-63
2022/03/14 06:01:06;;;;;;;5.20;2.28;;;10.80;67.00;;;;;;5070050;28;20467;-63
2022/03/14 06:03:32;;;;;;;10.50;2.88;;;10.90;67.00;;;;;;5069328;28;20055;-63
2022/03/14 06:05:58;;;;;;;4.88;2.10;;;10.90;66.90;;;;;;5070010;28;20389;-63
2022/03/14 06:08:23;;;;;;;4.68;2.55;;;10.90;67.10;;;;;;5070209;28;20039;-63
2022/03/14 06:10:49;;;;;;;3.80;1.95;;;10.80;66.90;;;;;;5070165;28;20033;-63
2022/03/14 06:13:15;;;;;;;5.97;2.22;;;10.80;67.00;;;;;;5069126;28;20052;-63
2022/03/14 06:15:45;;;;;;;8.30;2.75;;;10.80;67.00;;;;;;5069052;28;20028;-63
2022/03/14 06:18:11;;;;;;;5.13;2.30;;;10.80;67.20;;;;;;5070476;28;20033;-63
2022/03/14 06:20:37;;;;;;;5.25;2.72;;;10.80;67.20;;;;;;5069596;28;20396;-63
2022/03/14 06:23:02;;;;;;;7.55;3.15;;;10.90;68.30;;;;;;5069042;28;20493;-63
2022/03/14 06:25:28;;;;;;;7.50;3.42;;;10.90;68.00;;;;;;5069105;28;20052;-68
2022/03/14 06:27:54;;;;;;;6.38;2.70;;;10.90;67.80;;;;;;5070106;28;20035;-67
2022/03/14 06:30:20;;;;;;;5.35;2.53;;;10.80;67.50;;;;;;5069896;28;20033;-68
2022/03/14 06:32:48;;;;;;;9.43;4.25;;;10.80;67.50;;;;;;5068535;28;20021;-68
2022/03/14 06:35:16;;;;;;;8.95;3.63;;;10.80;67.70;;;;;;5068632;28;20090;-68
2022/03/14 06:37:45;;;;;;;10.30;4.20;;;10.80;67.50;;;;;;5070444;28;20111;-68
2022/03/14 06:40:12;;;;;;;8.85;3.10;;;10.80;67.70;;;;;;5068931;28;20032;-68
2022/03/14 06:42:38;;;;;;;11.07;3.58;;;10.80;67.60;;;;;;5069711;28;20286;-67
2022/03/14 06:45:05;;;;;;;5.05;3.05;;;10.70;67.50;;;;;;5069449;28;20020;-67
2022/03/14 06:47:32;;;;;;;5.50;2.40;;;10.70;68.50;;;;;;5070267;28;20051;-68
2022/03/14 06:49:58;;;;;;;6.10;2.97;;;10.70;68.00;;;;;;5069028;28;20481;-67
2022/03/14 06:52:24;;;;;;;4.35;2.15;;;10.80;68.40;;;;;;5069316;28;20060;-68
2022/03/14 06:54:49;;;;;;;5.25;2.58;;;10.80;68.60;;;;;;5068238;28;20465;-67
2022/03/14 06:57:15;;;;;;;6.07;2.25;;;10.80;68.80;;;;;;5069482;28;20078;-68
2022/03/14 06:59:41;;;;;;;17.08;2.03;;;10.80;68.80;;;;;;5069462;28;20041;-68
2022/03/14 07:02:07;;;;;;;2.78;1.55;;;10.80;68.20;;;;;;5069317;28;20031;-68
2022/03/14 07:04:34;;;;;;;5.70;2.25;;;10.80;68.50;;;;;;5068917;28;20517;-68
2022/03/14 07:07:03;;;;;;;2.03;1.45;;;10.80;69.20;;;;;;5069396;28;20025;-69
2022/03/14 07:09:30;;;;;;;4.60;1.77;;;10.90;69.50;;;;;;5069111;28;20025;-67
2022/03/14 07:11:56;;;;;;;3.60;1.15;;;10.80;71.50;;;;;;5068564;28;20021;-69
2022/03/14 07:14:22;;;;;;;2.10;1.25;;;10.80;70.60;;;;;;5068029;28;20029;-68
2022/03/14 07:16:48;;;;;;;1.40;1.30;;;10.80;70.20;;;;;;5069320;28;20773;-67
2022/03/14 07:19:14;;;;;;;1.70;0.98;;;10.90;71.00;;;;;;5069561;28;20098;-68
2022/03/14 07:21:40;;;;;;;2.08;0.93;;;11.00;72.20;;;;;;5068599;28;20033;-68
2022/03/14 07:24:06;;;;;;;0.88;0.70;;;11.00;70.70;;;;;;5070755;28;20023;-68
2022/03/14 07:26:32;;;;;;;1.60;0.82;;;11.10;69.90;;;;;;5071759;28;20253;-70
2022/03/14 07:28:58;;;;;;;0.65;0.65;;;11.10;71.30;;;;;;5072653;28;20041;-68
2022/03/14 07:31:24;;;;;;;1.10;0.68;;;11.20;72.30;;;;;;5072750;28;20070;-68
2022/03/14 07:33:50;;;;;;;0.57;0.52;;;11.30;72.30;;;;;;5072835;28;20020;-68
2022/03/14 07:36:16;;;;;;;0.60;0.60;;;11.40;73.00;;;;;;5072379;28;20024;-68
2022/03/14 07:38:42;;;;;;;0.30;0.30;;;11.40;73.80;;;;;;5072518;28;20024;-67
2022/03/14 07:41:08;;;;;;;0.60;0.60;;;11.50;73.20;;;;;;5073512;28;20078;-68
2022/03/14 07:43:34;;;;;;;2.35;0.77;;;11.40;74.30;;;;;;5074269;28;20075;-67
2022/03/14 07:46:01;;;;;;;0.40;0.30;;;11.40;73.60;;;;;;5073289;28;20489;-67
2022/03/14 07:48:27;;;;;;;0.40;0.30;;;11.50;73.80;;;;;;5072090;28;20038;-68
2022/03/14 07:50:53;;;;;;;0.55;0.30;;;11.50;73.30;;;;;;5072557;28;20115;-68
2022/03/14 07:53:19;;;;;;;0.40;0.40;;;11.40;72.70;;;;;;5072648;28;20035;-67
2022/03/14 07:55:44;;;;;;;0.40;0.40;;;11.50;73.00;;;;;;5072666;28;20074;-68
2022/03/14 07:58:10;;;;;;;0.47;0.47;;;11.50;73.60;;;;;;5071725;28;20033;-68
2022/03/14 08:00:35;;;;;;;0.30;0.30;;;11.60;73.80;;;;;;5073211;28;20103;-68
2022/03/14 08:03:01;;;;;;;0.30;0.28;;;11.60;73.40;;;;;;5072440;28;20035;-68
2022/03/14 08:05:27;;;;;;;1.02;0.50;;;11.70;73.50;;;;;;5071674;28;20035;-68
2022/03/14 08:07:54;;;;;;;0.63;0.47;;;11.70;72.90;;;;;;5072685;28;20313;-68
2022/03/14 08:10:20;;;;;;;0.30;0.30;;;11.70;72.90;;;;;;5072356;28;20491;-68
2022/03/14 08:12:49;;;;;;;0.47;0.47;;;11.80;72.80;;;;;;5071262;28;20477;-68
2022/03/14 08:15:34;;;;;;;0.55;0.40;;;11.80;72.40;;;;;;5072504;28;20024;-68
2022/03/14 08:18:02;;;;;;;0.30;0.30;;;11.70;72.90;;;;;;5073107;28;20073;-68
2022/03/14 08:20:29;;;;;;;0.22;0.22;;;11.80;72.90;;;;;;5072492;28;20071;-68
2022/03/14 08:22:56;;;;;;;0.75;0.43;;;11.80;71.80;;;;;;5072102;28;20512;-68
2022/03/14 08:25:22;;;;;;;0.40;0.40;;;11.80;71.90;;;;;;5071765;28;20032;-68
2022/03/14 08:27:48;;;;;;;0.20;0.20;;;11.80;72.20;;;;;;5071948;28;20036;-68
2022/03/14 08:30:14;;;;;;;4.70;0.60;;;11.90;71.90;;;;;;5072329;28;20355;-68
2022/03/14 08:32:41;;;;;;;4.95;0.57;;;11.90;71.60;;;;;;5072017;28;20230;-68
2022/03/14 08:35:08;;;;;;;0.47;0.45;;;12.00;71.70;;;;;;5071473;28;20037;-68
2022/03/14 08:37:37;;;;;;;10.05;0.50;;;12.00;71.00;;;;;;5052394;28;20486;-68
2022/03/14 08:40:05;;;;;;;0.30;0.30;;;12.00;71.30;;;;;;5053136;28;20029;-68
2022/03/14 08:42:31;;;;;;;0.10;0.10;;;12.10;71.20;;;;;;5052069;28;20031;-68
2022/03/14 08:44:57;;;;;;;0.60;0.30;;;12.10;70.40;;;;;;5051991;28;20115;-68
2022/03/14 08:47:23;;;;;;;0.40;0.40;;;12.10;71.00;;;;;;5051955;28;20025;-68
2022/03/14 08:49:49;;;;;;;0.50;0.50;;;12.10;70.80;;;;;;5064513;28;20025;-68
2022/03/14 08:52:15;;;;;;;0.65;0.60;;;12.20;71.20;;;;;;5069028;28;20024;-69
2022/03/14 08:54:40;;;;;;;0.50;0.50;;;12.20;69.70;;;;;;5071933;28;20026;-68
2022/03/14 08:57:06;;;;;;;0.20;0.20;;;12.20;70.40;;;;;;5071571;28;20083;-68
2022/03/14 08:59:32;;;;;;;0.30;0.30;;;12.30;70.50;;;;;;5071020;28;20063;-69
2022/03/14 09:01:57;;;;;;;3.25;0.40;;;12.40;69.90;;;;;;5071566;28;20031;-69
2022/03/14 09:04:23;;;;;;;0.43;0.43;;;12.40;70.40;;;;;;5071221;28;20355;-68
2022/03/14 09:06:48;;;;;;;0.30;0.30;;;12.30;70.90;;;;;;5069791;28;20098;-68
2022/03/14 09:09:14;;;;;;;0.43;0.43;;;12.20;71.90;;;;;;5071574;28;20025;-68
2022/03/14 09:11:40;;;;;;;0.20;0.20;;;12.10;71.90;;;;;;5071556;28;20500;-68
2022/03/14 09:14:06;;;;;;;0.20;0.20;;;12.00;74.90;;;;;;5071663;28;20103;-68
2022/03/14 09:16:32;;;;;;;1.23;0.40;;;12.00;71.00;;;;;;5071071;28;20427;-68
2022/03/14 09:18:57;;;;;;;0.20;0.20;;;11.80;72.10;;;;;;5071189;28;20112;-68
2022/03/14 09:21:26;;;;;;;0.40;0.40;;;11.90;71.90;;;;;;5070154;28;20569;-68
2022/03/14 09:23:52;;;;;;;0.30;0.30;;;11.90;72.40;;;;;;5071460;28;20070;-68
2022/03/14 09:26:18;;;;;;;0.20;0.20;;;11.80;70.20;;;;;;5070037;28;20024;-68
2022/03/14 09:28:44;;;;;;;0.43;0.30;;;11.80;71.60;;;;;;5070901;28;20028;-68
2022/03/14 09:31:16;;;;;;;0.20;0.20;;;11.80;70.80;;;;;;5071005;28;20037;-68
2022/03/14 09:33:42;;;;;;;0.30;0.30;;;11.90;72.30;;;;;;5070689;28;20493;-68
2022/03/14 09:36:08;;;;;;;0.20;0.20;;;11.80;73.70;;;;;;5069422;28;20494;-68
2022/03/14 09:38:34;;;;;;;0.30;0.30;;;11.90;70.80;;;;;;5070871;28;20025;-68
2022/03/14 09:41:03;;;;;;;0.50;0.32;;;11.90;70.70;;;;;;5071469;28;20028;-68
2022/03/14 09:43:30;;;;;;;0.85;0.85;;;11.90;70.90;;;;;;5069504;28;20055;-68
2022/03/14 09:45:58;;;;;;;0.32;0.32;;;11.90;70.00;;;;;;5070608;28;20414;-68
2022/03/14 09:48:24;;;;;;;0.88;0.40;;;11.80;69.90;;;;;;5069802;28;20025;-69
2022/03/14 09:50:51;;;;;;;2.63;0.45;;;11.80;70.40;;;;;;5068164;28;20035;-69
2022/03/14 09:53:18;;;;;;;0.47;0.40;;;11.90;70.90;;;;;;5070495;28;20082;-68
2022/03/14 09:55:46;;;;;;;0.30;0.30;;;11.90;70.20;;;;;;5070795;28;20027;-68
2022/03/14 09:58:14;;;;;;;0.30;0.30;;;12.00;69.70;;;;;;5070606;28;20052;-68
2022/03/14 10:00:40;;;;;;;1.63;0.30;;;12.10;68.90;;;;;;5069574;28;20017;-68
2022/03/14 10:03:06;;;;;;;0.80;0.80;;;12.10;68.20;;;;;;5069211;28;20093;-70
2022/03/14 10:05:31;;;;;;;1.05;0.30;;;12.10;67.60;;;;;;5070523;28;20044;-68
2022/03/14 10:07:57;;;;;;;0.50;0.40;;;12.10;68.30;;;;;;5085345;22;20033;-62
2022/03/14 10:10:23;;;;;;;0.20;0.20;;;12.10;68.30;;;;;;5050206;28;20017;-63
2022/03/14 10:12:52;;;;;;;0.32;0.32;;;12.10;69.70;;;;;;5031102;28;20583;-63
2022/03/14 10:15:19;;;;;;;1.30;0.60;;;12.20;69.30;;;;;;5049954;28;20039;-63
2022/03/14 10:17:45;;;;;;;1.13;0.50;;;12.30;70.20;;;;;;5032109;28;20280;-63
2022/03/14 10:20:11;;;;;;;0.40;0.40;;;12.40;70.00;;;;;;5050318;28;20024;-63
2022/03/14 10:22:39;;;;;;;0.30;0.30;;;12.40;69.40;;;;;;5048935;28;20029;-63
2022/03/14 10:25:13;;;;;;;0.20;0.20;;;12.40;68.60;;;;;;5049262;28;20142;-63
2022/03/14 10:27:43;;;;;;;2.17;0.50;;;12.60;67.50;;;;;;5050347;28;20041;-62
2022/03/14 10:30:29;;;;;;;0.22;0.22;;;12.60;68.20;;;;;;5050010;28;20024;-64
2022/03/14 10:33:14;;;;;;;0.22;0.22;;;12.70;68.40;;;;;;5049171;28;20108;-63
2022/03/14 10:35:44;;;;;;;0.30;0.30;;;12.80;67.70;;;;;;5047096;28;20044;-63
2022/03/14 10:38:11;;;;;;;0.30;0.30;;;12.90;67.30;;;;;;5049221;28;20083;-64
2022/03/14 10:40:40;;;;;;;0.43;0.40;;;12.90;66.40;;;;;;5049798;28;20032;-63
2022/03/14 10:43:27;;;;;;;0.55;0.47;;;12.90;67.70;;;;;;5050050;28;20103;-63
2022/03/14 10:45:57;;;;;;;0.30;0.30;;;12.90;68.30;;;;;;5049806;28;20020;-63
2022/03/14 10:48:32;;;;;;;0.40;0.40;;;13.00;68.40;;;;;;5050172;28;20032;-63
2022/03/14 10:51:03;;;;;;;0.20;0.20;;;13.10;66.70;;;;;;5046894;28;20421;-62
2022/03/14 10:53:29;;;;;;;0.30;0.30;;;13.20;66.30;;;;;;5042296;28;20060;-63
2022/03/14 10:55:58;;;;;;;0.30;0.30;;;13.20;66.40;;;;;;5048495;28;20052;-63
2022/03/14 10:58:30;;;;;;;0.20;0.20;;;13.30;66.10;;;;;;5047759;28;20067;-63
2022/03/14 11:00:58;;;;;;;0.43;0.43;;;13.40;63.60;;;;;;5030592;28;20382;-63
2022/03/14 11:03:28;;;;;;;1.15;0.43;;;13.40;63.70;;;;;;5029771;28;20018;-63
2022/03/14 11:05:58;;;;;;;0.43;0.30;;;13.40;65.20;;;;;;5029817;28;20060;-62
2022/03/14 11:08:30;;;;;;;0.30;0.30;;;13.30;65.20;;;;;;5038499;28;20182;-63
2022/03/14 11:10:59;;;;;;;0.30;0.30;;;13.10;64.00;;;;;;5048830;28;20166;-62
2022/03/14 11:13:25;;;;;;;1.55;0.50;;;13.00;64.30;;;;;;5048991;28;20124;-62
2022/03/14 11:15:51;;;;;;;0.30;0.30;;;12.90;65.90;;;;;;5049563;28;20397;-63
2022/03/14 11:18:21;;;;;;;0.20;0.20;;;13.00;65.70;;;;;;5047658;28;20044;-63
2022/03/14 11:20:47;;;;;;;;;;;13.20;64.10;;;;;;5049625;28;20032;-63
2022/03/14 11:23:14;;;;;;;0.63;0.45;;;13.30;64.00;;;;;;5047999;28;19909;-63
2022/03/14 11:25:44;;;;;;;0.25;0.25;;;13.40;63.60;;;;;;5049762;28;20083;-63
2022/03/14 11:28:13;;;;;;;0.47;0.38;;;13.50;64.00;;;;;;5048378;28;20036;-64
2022/03/14 11:30:40;;;;;;;0.50;0.50;;;13.60;63.60;;;;;;5049327;28;20060;-63
2022/03/14 11:33:06;;;;;;;0.20;0.20;;;13.60;62.70;;;;;;5031393;28;20445;-63
2022/03/14 11:35:32;;;;;;;0.57;0.40;;;13.70;62.90;;;;;;5049879;28;20079;-63
2022/03/14 11:37:57;;;;;;;0.50;0.50;;;13.60;63.70;;;;;;5048171;28;20155;-63
2022/03/14 11:40:23;;;;;;;0.30;0.30;;;13.60;64.60;;;;;;5049715;28;20473;-64
2022/03/14 11:42:50;;;;;;;0.40;0.30;;;13.60;64.80;;;;;;5031343;28;20501;-63
2022/03/14 11:45:17;;;;;;;0.65;0.52;;;13.60;64.60;;;;;;5030258;28;20107;-63
2022/03/14 11:47:43;;;;;;;0.35;0.30;;;13.60;64.80;;;;;;5048794;28;20025;-63
2022/03/14 11:50:09;;;;;;;0.20;0.20;;;13.70;64.20;;;;;;5049301;28;20029;-64
2022/03/14 11:52:37;;;;;;;1.45;0.40;;;13.70;64.60;;;;;;5048159;28;20359;-63
2022/03/14 11:55:15;;;;;;;0.63;0.50;;;13.80;63.30;;;;;;5048461;28;20025;-63
2022/03/14 11:57:43;;;;;;;0.40;0.40;;;13.80;64.00;;;;;;5049173;28;20029;-63
2022/03/14 12:00:21;;;;;;;0.25;0.25;;;13.80;63.50;;;;;;5048866;28;20049;-64
2022/03/14 12:02:58;;;;;;;0.55;0.43;;;13.80;63.00;;;;;;5048220;28;20060;-64
2022/03/14 12:05:33;;;;;;;1.15;0.60;;;14.00;62.50;;;;;;5048995;28;20084;-63
2022/03/14 12:08:12;;;;;;;0.50;0.50;;;14.00;60.60;;;;;;5047654;28;20039;-64
2022/03/14 12:10:37;;;;;;;0.85;0.43;;;14.00;61.10;;;;;;5049462;28;20029;-63
2022/03/14 12:13:03;;;;;;;0.70;0.70;;;14.00;61.10;;;;;;5052455;28;20028;-63
2022/03/14 12:15:43;;;;;;;0.50;0.50;;;14.00;59.80;;;;;;5051997;28;20017;-63
2022/03/14 12:18:43;;;;;;;0.40;0.40;;;14.10;58.80;;;;;;5052355;28;20420;-63
2022/03/14 12:21:44;;;;;;;6.57;0.47;;;14.10;58.60;;;;;;5029563;28;20124;-64
2022/03/14 12:24:40;;;;;;;1.20;0.70;;;14.10;58.60;;;;;;5028760;28;20025;-65
2022/03/14 12:27:17;;;;;;;0.68;0.50;;;14.10;58.70;;;;;;5032692;28;20025;-64
2022/03/14 12:29:43;;;;;;;1.13;0.63;;;14.30;58.00;;;;;;5029776;28;20071;-64
2022/03/14 12:32:29;;;;;;;3.40;0.60;;;14.20;58.40;;;;;;5027800;28;20033;-64
2022/03/14 12:35:26;;;;;;;1.40;0.50;;;14.20;58.00;;;;;;5029302;28;20029;-64
2022/03/14 12:37:53;;;;;;;0.52;0.52;;;14.30;56.60;;;;;;5029674;28;20040;-64
2022/03/14 12:40:19;;;;;;;0.50;0.50;;;14.30;56.90;;;;;;5028412;28;20168;-65
2022/03/14 12:42:47;;;;;;;2.45;0.57;;;14.30;55.20;;;;;;5029526;28;20025;-64
2022/03/14 12:45:19;;;;;;;0.50;0.50;;;14.20;55.40;;;;;;5029548;28;20416;-64